createdAt,value
2024-02-29T00:00:26.621Z,19.52
2024-02-29T00:02:54.201Z,13.48
2024-02-29T00:05:22.087Z,14.15
2024-02-29T00:07:49.247Z,18.25
2024-02-29T00:10:16.465Z,14.13
2024-02-29T00:12:44.019Z,20.65
2024-02-29T00:15:12.072Z,22.52
2024-02-29T00:17:39.178Z,17.02
2024-02-29T00:20:10.107Z,18.75
2024-02-29T00:22:37.512Z,16.15
2024-02-29T00:25:05.300Z,16.33
2024-02-29T00:27:32.674Z,22.55
2024-02-29T00:30:00.732Z,15.93
2024-02-29T00:32:28.091Z,14.38
2024-02-29T00:34:55.539Z,18.92
2024-02-29T00:37:22.922Z,20.42
2024-02-29T00:39:50.049Z,15.45
2024-02-29T00:42:17.290Z,16.48
2024-02-29T00:44:44.666Z,16.38
2024-02-29T00:47:13.235Z,15.65
2024-02-29T00:49:40.863Z,19.15
2024-02-29T00:52:08.226Z,16.30
2024-02-29T00:54:35.495Z,16.33
2024-02-29T00:57:03.454Z,17.48
2024-02-29T00:59:30.741Z,16.88
2024-02-29T01:01:58.198Z,16.13
2024-02-29T01:04:26.668Z,19.15
2024-02-29T01:06:54.349Z,12.75
2024-02-29T01:09:27.001Z,15.40
2024-02-29T01:11:57.010Z,16.17
2024-02-29T01:14:24.237Z,21.83
2024-02-29T01:16:52.246Z,15.63
2024-02-29T01:19:19.433Z,20.67
2024-02-29T01:21:46.738Z,18.30
2024-02-29T01:24:13.998Z,16.77
2024-02-29T01:26:41.177Z,15.15
2024-02-29T01:29:08.474Z,15.80
2024-02-29T01:31:35.645Z,15.13
2024-02-29T01:34:02.761Z,16.25
2024-02-29T01:36:29.942Z,14.02
2024-02-29T01:38:57.254Z,18.17
2024-02-29T01:41:24.386Z,21.75
2024-02-29T01:43:55.487Z,16.75
2024-02-29T01:46:24.175Z,16.38
2024-02-29T01:48:52.117Z,15.48
2024-02-29T01:51:20.726Z,16.08
2024-02-29T01:53:47.947Z,22.50
2024-02-29T01:56:16.149Z,13.85
2024-02-29T01:58:43.577Z,15.32
2024-02-29T02:01:11.156Z,17.73
2024-02-29T02:03:39.638Z,16.10
2024-02-29T02:06:06.823Z,16.55
2024-02-29T02:08:34.390Z,15.43
2024-02-29T02:11:01.595Z,12.43
2024-02-29T02:13:28.790Z,12.15
2024-02-29T02:15:56.075Z,18.63
2024-02-29T02:18:23.521Z,12.43
2024-02-29T02:20:51.134Z,16.58
2024-02-29T02:23:18.462Z,14.27
2024-02-29T02:25:45.622Z,13.75
2024-02-29T02:28:14.054Z,17.27
2024-02-29T02:30:41.568Z,13.07
2024-02-29T02:33:10.885Z,16.20
2024-02-29T02:35:38.130Z,15.23
2024-02-29T02:38:05.591Z,20.65
2024-02-29T02:40:32.991Z,15.02
2024-02-29T02:43:00.211Z,12.70
2024-02-29T02:45:27.358Z,13.07
2024-02-29T02:47:54.816Z,13.65
2024-02-29T02:50:22.420Z,13.77
2024-02-29T02:52:49.566Z,17.20
2024-02-29T02:55:16.714Z,12.50
2024-02-29T02:57:44.953Z,10.25
2024-02-29T03:00:12.997Z,13.85
2024-02-29T03:02:41.154Z,16.00
2024-02-29T03:05:10.290Z,15.70
2024-02-29T03:07:39.501Z,14.65
2024-02-29T03:10:08.684Z,13.82
2024-02-29T03:12:37.550Z,16.25
2024-02-29T03:15:06.371Z,18.92
2024-02-29T03:17:33.617Z,14.73
2024-02-29T03:20:00.981Z,18.63
2024-02-29T03:22:28.174Z,16.63
2024-02-29T03:24:57.155Z,13.35
2024-02-29T03:27:24.479Z,16.25
2024-02-29T03:29:51.643Z,17.60
2024-02-29T03:32:20.616Z,21.58
2024-02-29T03:34:47.895Z,17.60
2024-02-29T03:37:15.176Z,16.10
2024-02-29T03:39:42.509Z,15.60
2024-02-29T03:42:09.775Z,16.33
2024-02-29T03:44:37.199Z,14.40
2024-02-29T03:47:05.608Z,15.73
2024-02-29T03:49:32.698Z,14.30
2024-02-29T03:51:59.859Z,16.90
2024-02-29T03:54:27.213Z,20.95
2024-02-29T03:56:54.933Z,14.80
2024-02-29T03:59:22.172Z,17.70
2024-02-29T04:01:50.482Z,19.00
2024-02-29T04:04:18.779Z,17.42
2024-02-29T04:06:46.312Z,17.50
2024-02-29T04:09:13.735Z,22.50
2024-02-29T04:11:41.057Z,16.10
2024-02-29T04:14:08.169Z,15.65
2024-02-29T04:16:38.702Z,15.85
2024-02-29T04:19:06.857Z,18.55
2024-02-29T04:21:34.584Z,20.80
2024-02-29T04:24:02.608Z,17.58
2024-02-29T04:26:30.143Z,16.67
2024-02-29T04:28:58.472Z,17.65
2024-02-29T04:31:25.705Z,21.42
2024-02-29T04:33:53.260Z,16.50
2024-02-29T04:36:20.480Z,25.08
2024-02-29T04:38:47.650Z,23.38
2024-02-29T04:41:14.886Z,21.30
2024-02-29T04:43:42.031Z,21.33
2024-02-29T04:46:09.504Z,21.27
2024-02-29T04:48:36.821Z,20.67
2024-02-29T04:51:05.962Z,26.27
2024-02-29T04:53:33.284Z,23.00
2024-02-29T04:56:01.727Z,22.55
2024-02-29T04:58:29.249Z,23.48
2024-02-29T05:00:57.358Z,18.52
2024-02-29T05:03:25.835Z,19.35
2024-02-29T05:05:53.469Z,30.60
2024-02-29T05:08:20.904Z,17.50
2024-02-29T05:10:48.815Z,23.05
2024-02-29T05:13:16.132Z,26.70
2024-02-29T05:15:43.887Z,25.02
2024-02-29T05:18:11.231Z,22.52
2024-02-29T05:20:38.429Z,23.45
2024-02-29T05:23:06.947Z,22.05
2024-02-29T05:25:34.022Z,24.40
2024-02-29T05:28:01.613Z,21.23
2024-02-29T05:30:28.955Z,26.13
2024-02-29T05:35:38.550Z,23.65
2024-02-29T05:38:07.231Z,21.02
2024-02-29T05:40:34.510Z,23.30
2024-02-29T05:43:05.569Z,27.85
2024-02-29T05:45:32.806Z,22.60
2024-02-29T05:47:59.953Z,25.00
2024-02-29T05:50:29.896Z,20.48
2024-02-29T05:53:00.692Z,19.10
2024-02-29T05:55:27.832Z,27.45
2024-02-29T05:57:55.414Z,21.75
2024-02-29T06:00:25.723Z,18.92
2024-02-29T06:02:53.402Z,28.58
2024-02-29T06:05:21.228Z,22.73
2024-02-29T06:07:48.484Z,22.02
2024-02-29T06:10:15.852Z,29.30
2024-02-29T06:12:42.985Z,19.30
2024-02-29T06:15:11.672Z,26.02
2024-02-29T06:17:39.898Z,23.85
2024-02-29T06:20:11.629Z,20.58
2024-02-29T06:22:42.432Z,20.88
2024-02-29T06:25:12.604Z,22.27
2024-02-29T06:27:40.509Z,22.63
2024-02-29T06:30:09.772Z,27.13
2024-02-29T06:32:37.062Z,21.00
2024-02-29T06:35:04.554Z,25.95
2024-02-29T06:37:31.674Z,21.27
2024-02-29T06:39:59.501Z,20.35
2024-02-29T06:42:27.018Z,21.63
2024-02-29T06:44:54.353Z,22.35
2024-02-29T06:47:21.569Z,21.95
2024-02-29T06:49:48.675Z,22.75
2024-02-29T06:52:16.020Z,19.85
2024-02-29T06:54:45.401Z,21.35
2024-02-29T06:57:13.191Z,16.20
2024-02-29T06:59:40.296Z,18.45
2024-02-29T07:02:07.697Z,17.73
2024-02-29T07:04:34.916Z,22.52
2024-02-29T07:07:04.307Z,23.63
2024-02-29T07:09:32.048Z,17.60
2024-02-29T07:11:59.578Z,22.90
2024-02-29T07:14:27.010Z,21.92
2024-02-29T07:16:54.325Z,21.67
2024-02-29T07:19:21.616Z,25.38
2024-02-29T07:21:48.848Z,26.63
2024-02-29T07:24:16.026Z,17.95
2024-02-29T07:26:43.279Z,18.70
2024-02-29T07:29:10.532Z,19.98
2024-02-29T07:31:42.874Z,19.00
2024-02-29T07:34:11.897Z,18.10
2024-02-29T07:36:39.125Z,15.77
2024-02-29T07:39:08.244Z,16.27
2024-02-29T07:41:35.567Z,14.60
2024-02-29T07:44:02.975Z,18.75
2024-02-29T07:46:30.148Z,20.73
2024-02-29T07:48:57.321Z,17.92
2024-02-29T07:51:24.528Z,15.35
2024-02-29T07:53:51.664Z,17.88
2024-02-29T07:56:19.298Z,15.38
2024-02-29T07:58:48.064Z,16.30
2024-02-29T08:01:15.392Z,19.15
2024-02-29T08:03:42.599Z,20.27
2024-02-29T08:06:09.749Z,17.15
2024-02-29T08:08:36.921Z,16.63
2024-02-29T08:11:04.421Z,22.10
2024-02-29T08:13:31.572Z,15.93
2024-02-29T08:15:58.703Z,18.20
2024-02-29T08:18:26.023Z,17.60
2024-02-29T08:20:53.251Z,15.60
2024-02-29T08:23:20.433Z,14.02
2024-02-29T08:25:48.138Z,13.48
2024-02-29T08:28:15.574Z,18.98
2024-02-29T08:30:42.789Z,15.80
2024-02-29T08:33:10.033Z,20.27
2024-02-29T08:35:37.312Z,17.63
2024-02-29T08:38:04.577Z,14.98
2024-02-29T08:40:31.718Z,18.33
2024-02-29T08:42:58.859Z,15.98
2024-02-29T08:45:26.115Z,18.10
2024-02-29T08:47:53.351Z,16.52
2024-02-29T08:50:20.672Z,18.35
2024-02-29T08:52:48.324Z,15.02
2024-02-29T08:55:15.682Z,22.27
2024-02-29T08:57:43.139Z,19.80
2024-02-29T09:00:10.898Z,16.65
2024-02-29T09:02:38.493Z,15.38
2024-02-29T09:05:06.190Z,19.27
2024-02-29T09:07:33.375Z,15.32
2024-02-29T09:10:00.628Z,24.35
2024-02-29T09:12:27.884Z,17.70
2024-02-29T09:14:54.988Z,19.08
2024-02-29T09:17:22.088Z,16.05
2024-02-29T09:19:49.213Z,15.57
2024-02-29T09:22:16.560Z,14.13
2024-02-29T09:24:43.968Z,13.93
2024-02-29T09:27:11.707Z,16.70
2024-02-29T09:29:38.861Z,12.98
2024-02-29T09:32:06.196Z,16.33
2024-02-29T09:34:38.348Z,13.75
2024-02-29T09:37:07.225Z,17.42
2024-02-29T09:39:34.492Z,14.98
2024-02-29T09:42:12.541Z,13.85
2024-02-29T09:44:43.820Z,13.63
2024-02-29T09:47:13.924Z,12.07
2024-02-29T09:49:42.218Z,12.25
2024-02-29T09:52:11.051Z,12.48
2024-02-29T09:54:40.987Z,14.18
2024-02-29T09:57:13.961Z,11.30
2024-02-29T09:59:44.787Z,15.88
2024-02-29T10:02:18.907Z,14.90
2024-02-29T10:04:49.522Z,13.57
2024-02-29T10:07:17.205Z,16.27
2024-02-29T10:09:45.301Z,16.60
2024-02-29T10:12:19.709Z,16.27
2024-02-29T10:14:48.467Z,15.30
2024-02-29T10:17:15.654Z,15.07
2024-02-29T10:19:42.797Z,20.23
2024-02-29T10:22:10.234Z,18.63
2024-02-29T10:24:37.428Z,17.45
2024-02-29T10:27:06.116Z,15.05
2024-02-29T10:29:33.277Z,14.52
2024-02-29T10:32:00.450Z,18.65
2024-02-29T10:34:27.747Z,13.73
2024-02-29T10:36:55.665Z,16.05
2024-02-29T10:39:22.980Z,14.00
2024-02-29T10:41:51.192Z,13.48
2024-02-29T10:44:22.732Z,16.35
2024-02-29T10:46:53.116Z,15.95
2024-02-29T10:49:35.938Z,14.50
2024-02-29T10:52:14.319Z,15.98
2024-02-29T10:55:07.020Z,15.25
2024-02-29T10:57:43.627Z,13.43
2024-02-29T11:00:12.909Z,16.60
2024-02-29T11:02:40.072Z,16.67
2024-02-29T11:05:09.137Z,12.70
2024-02-29T11:07:36.494Z,14.80
2024-02-29T11:10:05.666Z,10.20
2024-02-29T11:12:32.829Z,12.65
2024-02-29T11:15:00.314Z,15.10
2024-02-29T11:17:32.211Z,17.20
2024-02-29T11:20:04.570Z,11.93
2024-02-29T11:22:34.005Z,16.88
2024-02-29T11:25:11.494Z,11.73
2024-02-29T11:27:47.273Z,18.10
2024-02-29T11:30:18.655Z,11.98
2024-02-29T11:32:45.830Z,18.35
2024-02-29T11:35:12.986Z,12.70
2024-02-29T11:37:40.742Z,15.80
2024-02-29T11:40:09.029Z,14.50
2024-02-29T11:42:37.357Z,15.82
2024-02-29T11:45:05.277Z,12.25
2024-02-29T11:47:32.840Z,14.10
2024-02-29T11:50:00.836Z,13.07
2024-02-29T11:52:28.394Z,16.75
2024-02-29T11:54:55.704Z,14.98
2024-02-29T11:57:25.086Z,15.38
2024-02-29T11:59:56.519Z,13.10
2024-02-29T12:02:24.809Z,14.50
2024-02-29T12:04:51.958Z,12.13
2024-02-29T12:07:20.545Z,13.85
2024-02-29T12:09:48.795Z,12.93
2024-02-29T12:12:16.930Z,12.63
2024-02-29T12:14:44.779Z,11.57
2024-02-29T12:17:12.009Z,9.95
2024-02-29T12:19:41.214Z,11.25
2024-02-29T12:22:13.420Z,13.65
2024-02-29T12:24:43.227Z,9.43
2024-02-29T12:27:10.573Z,8.80
2024-02-29T12:29:37.827Z,10.35
2024-02-29T12:32:05.541Z,14.00
2024-02-29T12:34:32.946Z,9.20
2024-02-29T12:37:00.432Z,12.32
2024-02-29T12:39:27.711Z,12.57
2024-02-29T12:41:55.242Z,10.55
2024-02-29T12:44:22.931Z,10.05
2024-02-29T12:46:54.072Z,9.88
2024-02-29T12:49:21.316Z,8.93
2024-02-29T12:51:48.635Z,11.57
2024-02-29T12:54:15.712Z,12.07
2024-02-29T12:56:42.793Z,10.65
2024-02-29T12:59:11.437Z,8.48
2024-02-29T13:01:38.995Z,8.27
2024-02-29T13:04:06.412Z,9.75
2024-02-29T13:06:33.603Z,9.52
2024-02-29T13:09:00.870Z,8.18
2024-02-29T13:11:28.398Z,8.52
2024-02-29T13:13:55.587Z,13.88
2024-02-29T13:16:22.814Z,12.10
2024-02-29T13:18:50.252Z,9.68
2024-02-29T13:21:17.307Z,8.43
2024-02-29T13:23:44.837Z,9.15
2024-02-29T13:26:12.096Z,7.78
2024-02-29T13:28:39.699Z,8.90
2024-02-29T13:31:07.125Z,8.60
2024-02-29T13:33:34.403Z,12.55
2024-02-29T13:36:01.682Z,9.10
2024-02-29T13:38:28.789Z,9.50
2024-02-29T13:40:55.976Z,9.10
2024-02-29T13:43:24.221Z,8.05
2024-02-29T13:45:51.469Z,12.30
2024-02-29T13:48:18.646Z,10.57
2024-02-29T13:50:45.833Z,10.25
2024-02-29T13:53:13.016Z,10.85
2024-02-29T13:55:40.155Z,11.18
2024-02-29T13:58:07.728Z,9.65
2024-02-29T14:00:34.960Z,11.05
2024-02-29T14:03:02.575Z,10.68
2024-02-29T14:05:29.663Z,15.60
2024-02-29T14:07:56.920Z,12.93
2024-02-29T14:10:24.416Z,14.82
2024-02-29T14:12:51.640Z,14.95
2024-02-29T14:15:23.232Z,11.13
2024-02-29T14:17:51.770Z,12.82
2024-02-29T14:20:19.126Z,12.70
2024-02-29T14:22:46.359Z,14.02
2024-02-29T14:25:13.764Z,18.38
2024-02-29T14:27:41.104Z,15.82
2024-02-29T14:30:10.553Z,14.73
2024-02-29T14:32:39.114Z,18.92
2024-02-29T14:35:07.691Z,13.88
2024-02-29T14:37:34.932Z,11.20
2024-02-29T14:40:03.025Z,13.10
2024-02-29T14:42:30.294Z,15.30
2024-02-29T14:44:57.399Z,16.50
2024-02-29T14:47:27.046Z,13.65
2024-02-29T14:49:55.356Z,14.63
2024-02-29T14:52:22.739Z,12.10
2024-02-29T14:54:49.946Z,14.88
2024-02-29T14:57:17.283Z,11.50
2024-02-29T14:59:44.560Z,15.15
2024-02-29T15:02:12.508Z,17.90
2024-02-29T15:04:39.651Z,12.93
2024-02-29T15:07:07.021Z,10.60
2024-02-29T15:09:34.140Z,12.23
2024-02-29T15:12:03.696Z,10.50
2024-02-29T15:14:30.801Z,10.90
2024-02-29T15:16:57.958Z,15.95
2024-02-29T15:19:25.473Z,11.88
2024-02-29T15:21:52.989Z,13.05
2024-02-29T15:24:21.650Z,10.13
2024-02-29T15:26:49.232Z,10.68
2024-02-29T15:29:16.430Z,9.38
2024-02-29T15:31:45.460Z,9.65
2024-02-29T15:34:12.744Z,11.95
2024-02-29T15:36:40.135Z,12.55
2024-02-29T15:39:07.524Z,12.30
2024-02-29T15:41:34.844Z,12.07
2024-02-29T15:44:01.973Z,13.73
2024-02-29T15:46:32.317Z,11.95
2024-02-29T15:48:59.654Z,10.27
2024-02-29T15:51:27.644Z,13.60
2024-02-29T15:53:55.452Z,12.40
2024-02-29T15:56:22.566Z,13.20
2024-02-29T15:58:49.951Z,12.35
2024-02-29T16:01:17.396Z,14.20
2024-02-29T16:03:44.603Z,15.23
2024-02-29T16:06:11.741Z,19.35
2024-02-29T16:08:38.948Z,18.67
2024-02-29T16:11:06.493Z,13.50
2024-02-29T16:13:36.247Z,13.50
2024-02-29T16:16:06.458Z,13.38
2024-02-29T16:18:33.608Z,14.68
2024-02-29T16:21:03.043Z,13.98
2024-02-29T16:23:30.271Z,16.15
2024-02-29T16:25:57.587Z,12.48
2024-02-29T16:28:28.026Z,15.10
2024-02-29T16:30:55.920Z,11.32
2024-02-29T16:33:23.241Z,16.20
2024-02-29T16:35:51.027Z,12.63
2024-02-29T16:38:18.339Z,11.85
2024-02-29T16:40:46.083Z,12.05
2024-02-29T16:43:15.794Z,13.25
2024-02-29T16:45:42.937Z,10.20
2024-02-29T16:48:10.131Z,11.45
2024-02-29T16:50:37.453Z,13.63
2024-02-29T16:53:06.026Z,15.35
2024-02-29T16:55:33.296Z,11.18
2024-02-29T16:58:00.540Z,10.77
2024-02-29T17:00:27.773Z,10.80
2024-02-29T17:02:55.354Z,10.35
2024-02-29T17:05:22.461Z,10.18
2024-02-29T17:07:50.254Z,12.68
2024-02-29T17:10:17.530Z,8.70
2024-02-29T17:12:44.885Z,10.40
2024-02-29T17:15:11.973Z,11.95
2024-02-29T17:17:39.188Z,8.85
2024-02-29T17:20:07.064Z,11.32
2024-02-29T17:22:34.316Z,10.65
2024-02-29T17:25:01.980Z,9.10
2024-02-29T17:27:29.592Z,7.60
2024-02-29T17:29:56.738Z,9.93
2024-02-29T17:32:26.348Z,9.55
2024-02-29T17:34:54.014Z,10.65
2024-02-29T17:37:23.698Z,9.25
2024-02-29T17:39:51.829Z,8.10
2024-02-29T17:42:18.993Z,10.35
2024-02-29T17:44:46.068Z,9.82
2024-02-29T17:47:13.214Z,9.48
2024-02-29T17:49:40.354Z,10.93
2024-02-29T17:52:07.573Z,12.00
2024-02-29T17:54:35.948Z,8.73
2024-02-29T17:57:03.862Z,9.43
2024-02-29T17:59:31.004Z,11.35
2024-02-29T18:01:58.240Z,9.05
2024-02-29T18:04:25.733Z,10.10
2024-02-29T18:06:52.898Z,9.73
2024-02-29T18:09:20.081Z,8.63
2024-02-29T18:11:47.201Z,14.85
2024-02-29T18:14:16.583Z,9.00
2024-02-29T18:16:43.832Z,10.90
2024-02-29T18:19:11.323Z,8.98
2024-02-29T18:21:44.132Z,10.35
2024-02-29T18:24:11.778Z,12.63
2024-02-29T18:26:39.585Z,11.80
2024-02-29T18:29:06.899Z,10.60
2024-02-29T18:31:34.033Z,10.77
2024-02-29T18:34:02.109Z,10.25
2024-02-29T18:36:29.210Z,11.40
2024-02-29T18:38:56.302Z,10.23
2024-02-29T18:41:25.806Z,12.45
2024-02-29T18:44:01.653Z,11.00
2024-02-29T18:46:43.283Z,9.98
2024-02-29T18:49:11.341Z,9.75
2024-02-29T18:51:45.012Z,10.57
2024-02-29T18:56:40.111Z,12.93
2024-02-29T18:59:09.913Z,14.52
2024-02-29T19:01:37.573Z,12.63
2024-02-29T19:04:05.109Z,10.80
2024-02-29T19:06:32.217Z,12.32
2024-02-29T19:08:59.353Z,13.50
2024-02-29T19:11:26.486Z,9.25
2024-02-29T19:13:54.065Z,11.32
2024-02-29T19:16:21.135Z,14.75
2024-02-29T19:18:48.589Z,13.98
2024-02-29T19:21:15.715Z,10.52
2024-02-29T19:23:42.893Z,11.15
2024-02-29T19:26:10.023Z,11.77
2024-02-29T19:28:39.005Z,12.43
2024-02-29T19:31:07.696Z,9.43
2024-02-29T19:33:37.147Z,11.23
2024-02-29T19:36:04.766Z,11.48
2024-02-29T19:38:32.297Z,11.18
2024-02-29T19:40:59.380Z,9.30
2024-02-29T19:43:26.596Z,9.75
2024-02-29T19:45:53.966Z,9.90
2024-02-29T19:48:21.046Z,15.00
2024-02-29T19:50:48.746Z,12.90
2024-02-29T19:53:15.865Z,9.35
2024-02-29T19:55:43.484Z,11.95
2024-02-29T19:58:11.386Z,12.50
2024-02-29T20:00:38.514Z,10.57
2024-02-29T20:03:07.474Z,10.52
2024-02-29T20:05:35.383Z,11.23
2024-02-29T20:08:03.596Z,13.25
2024-02-29T20:10:31.221Z,11.02
2024-02-29T20:12:58.384Z,12.38
2024-02-29T20:15:25.516Z,12.82
2024-02-29T20:17:52.796Z,11.15
2024-02-29T20:20:22.229Z,11.90
2024-02-29T20:22:50.022Z,11.90
2024-02-29T20:25:17.939Z,10.68
2024-02-29T20:27:53.004Z,12.73
2024-02-29T20:30:21.203Z,11.55
2024-02-29T20:32:49.896Z,12.55
2024-02-29T20:35:18.056Z,14.00
2024-02-29T20:37:45.263Z,15.00
2024-02-29T20:40:12.888Z,16.42
2024-02-29T20:42:40.284Z,14.13
2024-02-29T20:45:07.873Z,12.77
2024-02-29T20:47:35.176Z,15.50
2024-02-29T20:50:03.134Z,11.30
2024-02-29T20:52:31.156Z,12.07
2024-02-29T20:54:58.316Z,11.68
2024-02-29T20:57:25.493Z,11.48
2024-02-29T20:59:56.847Z,11.88
2024-02-29T21:02:24.857Z,11.68
2024-02-29T21:04:51.980Z,14.55
2024-02-29T21:07:19.247Z,12.73
2024-02-29T21:09:49.057Z,12.95
2024-02-29T21:12:16.185Z,13.80
2024-02-29T21:14:43.304Z,11.20
2024-02-29T21:17:10.396Z,11.85
2024-02-29T21:19:37.532Z,9.07
2024-02-29T21:22:04.913Z,14.20
2024-02-29T21:24:32.064Z,12.60
2024-02-29T21:26:59.238Z,11.98
2024-02-29T21:29:26.402Z,13.85
2024-02-29T21:31:53.995Z,15.55
2024-02-29T21:34:21.567Z,15.07
2024-02-29T21:36:49.381Z,13.18
2024-02-29T21:39:19.346Z,13.48
2024-02-29T21:41:52.072Z,15.35
2024-02-29T21:44:19.743Z,11.93
2024-02-29T21:46:47.030Z,14.60
2024-02-29T21:49:14.168Z,12.65
2024-02-29T21:51:41.282Z,12.27
2024-02-29T21:54:08.843Z,13.60
2024-02-29T21:56:36.391Z,17.63
2024-02-29T21:59:03.462Z,18.95
2024-02-29T22:01:31.566Z,17.33
2024-02-29T22:03:58.766Z,12.90
2024-02-29T22:06:25.913Z,22.17
2024-02-29T22:08:53.009Z,17.50
2024-02-29T22:11:20.273Z,15.50
2024-02-29T22:13:48.251Z,18.55
2024-02-29T22:16:15.396Z,15.27
2024-02-29T22:18:42.558Z,14.23
2024-02-29T22:21:09.673Z,12.20
2024-02-29T22:23:36.774Z,15.40
2024-02-29T22:26:03.971Z,14.85
2024-02-29T22:28:31.209Z,14.40
2024-02-29T22:30:58.464Z,12.25
2024-02-29T22:33:25.675Z,13.98
2024-02-29T22:35:52.920Z,20.15
2024-02-29T22:38:20.092Z,19.10
2024-02-29T22:40:47.298Z,20.10
2024-02-29T22:43:14.544Z,16.98
2024-02-29T22:45:41.680Z,18.98
2024-02-29T22:48:08.795Z,13.02
2024-02-29T22:50:36.055Z,12.50
2024-02-29T22:53:03.240Z,13.32
2024-02-29T22:55:30.407Z,14.95
2024-02-29T22:57:57.555Z,13.40
2024-02-29T23:00:31.499Z,15.48
2024-02-29T23:02:58.876Z,15.00
2024-02-29T23:05:26.143Z,13.45
2024-02-29T23:07:53.522Z,13.23
2024-02-29T23:10:21.616Z,12.93
2024-02-29T23:12:50.071Z,14.57
2024-02-29T23:15:20.860Z,12.85
2024-02-29T23:17:55.732Z,12.15
2024-02-29T23:20:23.816Z,14.07
2024-02-29T23:22:53.104Z,14.30
2024-02-29T23:25:23.202Z,11.88
2024-02-29T23:27:51.495Z,13.57
2024-02-29T23:30:20.461Z,10.70
2024-02-29T23:32:48.234Z,13.48
2024-02-29T23:35:16.247Z,10.07
2024-02-29T23:37:43.543Z,11.95
2024-02-29T23:40:11.021Z,13.77
2024-02-29T23:42:38.197Z,9.63
2024-02-29T23:45:05.720Z,9.02
2024-02-29T23:47:33.119Z,13.73
2024-02-29T23:50:00.754Z,9.52
2024-02-29T23:52:27.932Z,10.13
2024-02-29T23:54:55.523Z,11.27
2024-02-29T23:57:22.680Z,6.82
2024-02-29T23:59:49.757Z,8.38
